Time;durP1;ratioP1;P1;durP2;ratioP2;P2;SDS_P1;SDS_P2;PMS_P1;PMS_P2;Temp;Humidity;BMP_temperature;BMP_pressure;BME280_temperature;BME280_humidity;BME280_pressure;Samples;Min_cycle;Max_cycle;Signal;HPM_P1;HPM_P2
2023/04/17 00:00:38;;;;;;;7.35;3.90;;;;;;;;;;5037833;28;20555;-78
2023/04/17 00:03:04;;;;;;;5.43;2.67;;;;;;;;;;5037716;28;20515;-78
2023/04/17 00:05:32;;;;;;;4.30;2.28;;;;;;;;;;5038040;28;20049;-78
2023/04/17 00:07:59;;;;;;;4.20;2.28;;;;;;;;;;5044105;28;20051;-78
2023/04/17 00:10:26;;;;;;;4.43;2.08;;;;;;;;;;5045642;28;20113;-78
2023/04/17 00:12:53;;;;;;;4.47;2.42;;;;;;;;;;5043126;28;20408;-78
2023/04/17 00:15:19;;;;;;;3.30;1.90;;;;;;;;;;5039412;28;20133;-78
2023/04/17 00:17:46;;;;;;;3.72;2.05;;;;;;;;;;5038465;28;20120;-78
2023/04/17 00:20:13;;;;;;;4.10;2.20;;;;;;;;;;5054422;28;20500;-78
2023/04/17 00:22:41;;;;;;;4.10;2.13;;;;;;;;;;5059002;28;20059;-78
2023/04/17 00:25:11;;;;;;;4.95;2.10;;;;;;;;;;5058944;28;20055;-78
2023/04/17 00:27:38;;;;;;;4.32;1.77;;;;;;;;;;5058770;28;20056;-78
2023/04/17 00:30:07;;;;;;;4.47;2.20;;;;;;;;;;5057892;28;20095;-78
2023/04/17 00:32:33;;;;;;;3.22;1.70;;;;;;;;;;5056250;28;20128;-77
2023/04/17 00:35:00;;;;;;;4.10;1.90;;;;;;;;;;5055131;28;20045;-78
2023/04/17 00:37:27;;;;;;;4.55;2.15;;;;;;;;;;5055890;28;20044;-78
2023/04/17 00:39:55;;;;;;;4.38;2.58;;;;;;;;;;5055756;28;20144;-77
2023/04/17 00:42:22;;;;;;;5.75;2.78;;;;;;;;;;5056361;28;20416;-78
2023/04/17 00:44:48;;;;;;;6.97;3.53;;;;;;;;;;5056184;28;20079;-78
2023/04/17 00:47:15;;;;;;;6.63;3.63;;;;;;;;;;5056914;28;20120;-77
2023/04/17 00:49:42;;;;;;;6.57;3.35;;;;;;;;;;5057422;28;20045;-78
2023/04/17 00:52:09;;;;;;;6.43;3.40;;;;;;;;;;5055073;28;20041;-77
2023/04/17 00:54:36;;;;;;;6.63;3.63;;;;;;;;;;5055971;28;20049;-78
2023/04/17 00:57:04;;;;;;;5.72;3.25;;;;;;;;;;5055688;28;20385;-78
2023/04/17 00:59:32;;;;;;;7.40;3.53;;;;;;;;;;5055666;28;20099;-78
2023/04/17 01:01:59;;;;;;;6.97;3.13;;;;;;;;;;5055481;28;20063;-77
2023/04/17 01:04:26;;;;;;;7.32;3.85;;;;;;;;;;5057807;28;20080;-78
2023/04/17 01:06:53;;;;;;;7.50;3.85;;;;;;;;;;5060738;28;20049;-78
2023/04/17 01:09:20;;;;;;;7.50;3.50;;;;;;;;;;5059106;28;20076;-77
2023/04/17 01:11:47;;;;;;;7.40;3.33;;;;;;;;;;5058610;28;20044;-78
2023/04/17 01:14:16;;;;;;;5.78;3.22;;;;;;;;;;5055089;28;20131;-78
2023/04/17 01:16:43;;;;;;;8.20;3.80;;;;;;;;;;5054561;28;20662;-78
2023/04/17 01:19:13;;;;;;;6.82;3.42;;;;;;;;;;5046641;28;20459;-77
2023/04/17 01:21:39;;;;;;;7.32;3.72;;;;;;;;;;5034990;28;20053;-78
2023/04/17 01:24:08;;;;;;;8.95;4.30;;;;;;;;;;5035129;28;20045;-78
2023/04/17 01:26:35;;;;;;;7.38;3.42;;;;;;;;;;5034405;28;20050;-78
2023/04/17 01:29:03;;;;;;;7.60;3.40;;;;;;;;;;5035356;28;20056;-78
2023/04/17 01:31:30;;;;;;;7.18;3.70;;;;;;;;;;5034838;28;20057;-76
2023/04/17 01:33:56;;;;;;;6.68;3.60;;;;;;;;;;5034221;28;20087;-77
2023/04/17 01:36:23;;;;;;;6.57;3.10;;;;;;;;;;5037329;28;20101;-76
2023/04/17 01:38:50;;;;;;;5.80;2.97;;;;;;;;;;5041310;28;20053;-77
2023/04/17 01:41:18;;;;;;;6.45;3.10;;;;;;;;;;5035338;28;20053;-78
2023/04/17 01:43:46;;;;;;;6.10;2.90;;;;;;;;;;5035841;28;20050;-78
2023/04/17 01:46:13;;;;;;;5.88;2.75;;;;;;;;;;5035120;28;20102;-77
2023/04/17 01:48:40;;;;;;;5.53;2.80;;;;;;;;;;5035471;28;20120;-78
2023/04/17 01:51:07;;;;;;;6.18;3.47;;;;;;;;;;5035464;28;20045;-78
2023/04/17 01:53:34;;;;;;;5.53;2.80;;;;;;;;;;5034364;28;20041;-77
2023/04/17 01:56:01;;;;;;;5.47;2.75;;;;;;;;;;5033902;28;20052;-77
2023/04/17 01:58:29;;;;;;;6.63;3.45;;;;;;;;;;5034141;28;20053;-78
2023/04/17 02:00:55;;;;;;;6.40;3.20;;;;;;;;;;5033607;28;20077;-78
2023/04/17 02:03:23;;;;;;;5.28;2.85;;;;;;;;;;5034063;28;20051;-78
2023/04/17 02:05:49;;;;;;;6.10;3.13;;;;;;;;;;5033782;28;20046;-77
2023/04/17 02:08:16;;;;;;;5.50;2.72;;;;;;;;;;5034346;28;20077;-77
2023/04/17 02:10:43;;;;;;;5.38;2.63;;;;;;;;;;5034047;28;20088;-77
2023/04/17 02:13:10;;;;;;;5.70;3.15;;;;;;;;;;5033772;28;20120;-77
2023/04/17 02:15:38;;;;;;;4.95;2.72;;;;;;;;;;5034074;28;20439;-77
2023/04/17 02:18:05;;;;;;;6.22;3.55;;;;;;;;;;5034656;28;20432;-77
2023/04/17 02:20:32;;;;;;;6.05;3.20;;;;;;;;;;5053413;28;20389;-77
2023/04/17 02:22:59;;;;;;;5.65;3.60;;;;;;;;;;5053539;28;20124;-77
2023/04/17 02:25:26;;;;;;;5.75;3.03;;;;;;;;;;5053387;28;20045;-77
2023/04/17 02:27:53;;;;;;;7.22;3.83;;;;;;;;;;5053012;28;20473;-79
2023/04/17 02:30:20;;;;;;;6.95;3.78;;;;;;;;;;5052334;28;20124;-77
2023/04/17 02:32:50;;;;;;;10.30;4.75;;;;;;;;;;5052818;28;20128;-77
2023/04/17 02:35:17;;;;;;;10.02;5.50;;;;;;;;;;5052783;28;20045;-77
2023/04/17 02:37:44;;;;;;;11.32;5.43;;;;;;;;;;5054049;28;20109;-77
2023/04/17 02:40:11;;;;;;;9.40;5.28;;;;;;;;;;5054374;28;20083;-77
2023/04/17 02:42:38;;;;;;;9.63;5.03;;;;;;;;;;5053492;28;20129;-77
2023/04/17 02:45:06;;;;;;;9.15;4.57;;;;;;;;;;5053178;28;20051;-77
2023/04/17 02:47:32;;;;;;;11.15;5.32;;;;;;;;;;5054728;28;20861;-78
2023/04/17 02:50:00;;;;;;;10.60;5.90;;;;;;;;;;5055179;28;20109;-78
2023/04/17 02:52:27;;;;;;;11.18;6.03;;;;;;;;;;5054711;28;20068;-77
2023/04/17 02:54:55;;;;;;;11.35;6.30;;;;;;;;;;5052881;28;20056;-77
2023/04/17 02:57:22;;;;;;;13.93;6.40;;;;;;;;;;5053060;28;20080;-77
2023/04/17 02:59:48;;;;;;;11.55;5.78;;;;;;;;;;5057200;28;20056;-77
2023/04/17 03:02:20;;;;;;;10.75;5.75;;;;;;;;;;5057832;28;20052;-77
2023/04/17 03:04:47;;;;;;;11.20;5.63;;;;;;;;;;5057270;28;20084;-76
2023/04/17 03:07:17;;;;;;;10.23;5.28;;;;;;;;;;5056866;28;20148;-77
2023/04/17 03:09:44;;;;;;;11.07;5.88;;;;;;;;;;5056501;28;20049;-77
2023/04/17 03:12:11;;;;;;;11.68;5.97;;;;;;;;;;5056442;28;20053;-78
2023/04/17 03:14:37;;;;;;;14.20;6.78;;;;;;;;;;5056110;28;20061;-77
2023/04/17 03:17:04;;;;;;;12.25;6.32;;;;;;;;;;5056576;28;20127;-78
2023/04/17 03:19:31;;;;;;;14.13;7.05;;;;;;;;;;5046647;28;20064;-78
2023/04/17 03:21:57;;;;;;;11.15;6.15;;;;;;;;;;5037161;28;20053;-77
2023/04/17 03:24:25;;;;;;;11.40;5.72;;;;;;;;;;5037060;28;20055;-78
2023/04/17 03:26:52;;;;;;;12.00;6.18;;;;;;;;;;5037155;28;20457;-77
2023/04/17 03:29:18;;;;;;;11.68;6.22;;;;;;;;;;5037092;28;20042;-77
2023/04/17 03:31:45;;;;;;;11.30;6.70;;;;;;;;;;5042225;28;20084;-78
2023/04/17 03:34:12;;;;;;;13.57;6.85;;;;;;;;;;5043011;28;20049;-77
2023/04/17 03:36:39;;;;;;;13.88;7.72;;;;;;;;;;5041726;28;20051;-77
2023/04/17 03:39:05;;;;;;;13.95;7.30;;;;;;;;;;5042854;28;20061;-77
2023/04/17 03:41:33;;;;;;;16.83;8.57;;;;;;;;;;5042255;28;20132;-77
2023/04/17 03:44:00;;;;;;;15.63;7.55;;;;;;;;;;5042878;28;20053;-77
2023/04/17 03:46:26;;;;;;;14.57;6.90;;;;;;;;;;5042042;28;20081;-77
2023/04/17 03:48:53;;;;;;;12.85;7.20;;;;;;;;;;5037975;28;20045;-77
2023/04/17 03:51:19;;;;;;;17.23;8.35;;;;;;;;;;5038793;28;20092;-77
2023/04/17 03:53:46;;;;;;;16.23;8.55;;;;;;;;;;5037760;28;20049;-77
2023/04/17 03:56:13;;;;;;;19.70;8.95;;;;;;;;;;5041778;28;20045;-77
2023/04/17 03:58:41;;;;;;;17.75;8.25;;;;;;;;;;5039892;28;20051;-78
2023/04/17 04:01:09;;;;;;;16.23;7.78;;;;;;;;;;5041044;28;20077;-78
2023/04/17 04:03:36;;;;;;;16.58;8.60;;;;;;;;;;5041657;28;20046;-78
2023/04/17 04:06:03;;;;;;;15.50;8.18;;;;;;;;;;5037083;28;20133;-78
2023/04/17 04:08:30;;;;;;;19.60;9.68;;;;;;;;;;5036713;28;20576;-77
2023/04/17 04:10:56;;;;;;;17.17;8.65;;;;;;;;;;5037683;28;22004;-77
2023/04/17 04:13:23;;;;;;;16.95;8.73;;;;;;;;;;5038914;28;20095;-77
2023/04/17 04:15:51;;;;;;;17.08;9.15;;;;;;;;;;5039469;28;20049;-78
2023/04/17 04:18:18;;;;;;;16.58;8.93;;;;;;;;;;5038389;28;20077;-78
2023/04/17 04:20:44;;;;;;;16.67;8.80;;;;;;;;;;5038408;28;20416;-78
2023/04/17 04:23:12;;;;;;;17.55;9.27;;;;;;;;;;5038725;28;20053;-78
2023/04/17 04:25:40;;;;;;;17.55;9.00;;;;;;;;;;5038961;28;20042;-78
2023/04/17 04:28:07;;;;;;;19.65;9.38;;;;;;;;;;5039357;28;20045;-79
2023/04/17 04:30:34;;;;;;;16.90;9.00;;;;;;;;;;5041910;28;20050;-78
2023/04/17 04:33:04;;;;;;;21.33;10.98;;;;;;;;;;5044879;28;20057;-78
2023/04/17 04:35:31;;;;;;;19.75;10.02;;;;;;;;;;5042213;28;20059;-77
2023/04/17 04:38:00;;;;;;;19.17;9.95;;;;;;;;;;5043903;28;20045;-78
2023/04/17 04:40:27;;;;;;;18.10;9.63;;;;;;;;;;5040051;28;20558;-78
2023/04/17 04:42:54;;;;;;;19.13;9.13;;;;;;;;;;5039018;28;20068;-78
2023/04/17 04:45:21;;;;;;;17.60;9.40;;;;;;;;;;5038781;28;20116;-77
2023/04/17 04:47:48;;;;;;;17.30;9.00;;;;;;;;;;5040467;28;20132;-78
2023/04/17 04:50:16;;;;;;;17.58;9.40;;;;;;;;;;5046599;28;20080;-77
2023/04/17 04:52:43;;;;;;;16.58;8.15;;;;;;;;;;5046108;28;20054;-77
2023/04/17 04:55:09;;;;;;;16.40;8.38;;;;;;;;;;5042963;28;20045;-77
2023/04/17 04:57:36;;;;;;;16.88;9.30;;;;;;;;;;5043503;28;20053;-77
2023/04/17 05:00:05;;;;;;;15.70;8.68;;;;;;;;;;5047253;28;20049;-76
2023/04/17 05:05:09;;;;;;;18.85;9.93;;;;;;;;;;5010332;28;20053;-50
2023/04/17 05:07:37;;;;;;;17.70;9.50;;;;;;;;;;5013467;28;20062;-54
2023/04/17 05:10:05;;;;;;;17.50;9.40;;;;;;;;;;5012820;28;20119;-54
2023/04/17 05:12:33;;;;;;;17.15;9.50;;;;;;;;;;5013058;28;20490;-50
2023/04/17 05:15:00;;;;;;;19.45;9.63;;;;;;;;;;5013007;28;20050;-52
2023/04/17 05:17:27;;;;;;;18.60;9.70;;;;;;;;;;5013017;28;20045;-53
2023/04/17 05:19:54;;;;;;;20.08;10.25;;;;;;;;;;4999304;28;20051;-55
2023/04/17 05:22:21;;;;;;;19.20;10.05;;;;;;;;;;4992354;28;20061;-54
2023/04/17 05:24:49;;;;;;;19.58;11.05;;;;;;;;;;4993495;28;20129;-54
2023/04/17 05:27:16;;;;;;;20.58;10.48;;;;;;;;;;4993360;28;20050;-51
2023/04/17 05:29:43;;;;;;;22.98;10.38;;;;;;;;;;4993141;28;20050;-55
2023/04/17 05:32:10;;;;;;;19.40;10.55;;;;;;;;;;4992960;28;20117;-55
2023/04/17 05:34:36;;;;;;;20.80;11.07;;;;;;;;;;4992992;28;20092;-52
2023/04/17 05:37:03;;;;;;;20.77;10.13;;;;;;;;;;4992854;28;20566;-51
2023/04/17 05:39:30;;;;;;;21.08;10.98;;;;;;;;;;4992839;28;20054;-51
2023/04/17 05:41:58;;;;;;;20.95;10.13;;;;;;;;;;4992773;28;20120;-55
2023/04/17 05:44:25;;;;;;;19.42;9.25;;;;;;;;;;4993048;28;20050;-56
2023/04/17 05:46:52;;;;;;;19.63;10.07;;;;;;;;;;4992685;28;20420;-54
2023/04/17 05:49:19;;;;;;;22.23;10.50;;;;;;;;;;4992770;28;20691;-54
2023/04/17 05:51:46;;;;;;;23.30;10.93;;;;;;;;;;4992493;28;20105;-54
2023/04/17 05:54:12;;;;;;;23.30;11.02;;;;;;;;;;4992739;28;20058;-52
2023/04/17 05:56:39;;;;;;;26.58;11.73;;;;;;;;;;4992695;28;20054;-52
2023/04/17 05:59:08;;;;;;;27.70;12.20;;;;;;;;;;4992736;28;20046;-56
2023/04/17 06:01:35;;;;;;;28.98;12.95;;;;;;;;;;4992537;28;20108;-53
2023/04/17 06:04:02;;;;;;;27.20;11.30;;;;;;;;;;4992495;28;20057;-51
2023/04/17 06:06:29;;;;;;;26.15;12.90;;;;;;;;;;4992616;28;20554;-54
2023/04/17 06:08:55;;;;;;;27.42;12.82;;;;;;;;;;4992173;28;20129;-52
2023/04/17 06:11:23;;;;;;;30.45;13.50;;;;;;;;;;4992331;28;20062;-53
2023/04/17 06:13:50;;;;;;;24.58;12.38;;;;;;;;;;4992380;28;20077;-55
2023/04/17 06:16:18;;;;;;;24.83;12.05;;;;;;;;;;4992627;28;20058;-52
2023/04/17 06:18:45;;;;;;;28.05;13.32;;;;;;;;;;4992117;28;20483;-54
2023/04/17 06:21:12;;;;;;;30.02;12.70;;;;;;;;;;4992181;28;20070;-56
2023/04/17 06:23:39;;;;;;;26.92;12.07;;;;;;;;;;4991951;28;20054;-53
2023/04/17 06:26:06;;;;;;;26.73;12.77;;;;;;;;;;4992431;28;20050;-56
2023/04/17 06:28:33;;;;;;;28.52;13.55;;;;;;;;;;4992010;28;20054;-52
2023/04/17 06:31:00;;;;;;;26.85;12.57;;;;;;;;;;4992078;28;20105;-50
2023/04/17 06:33:28;;;;;;;25.73;11.57;;;;;;;;;;4994957;28;20050;-52
2023/04/17 06:35:54;;;;;;;30.05;13.07;;;;;;;;;;4998691;28;20062;-56
2023/04/17 06:38:21;;;;;;;30.77;13.48;;;;;;;;;;4998706;28;20050;-52
2023/04/17 06:40:48;;;;;;;28.80;13.05;;;;;;;;;;4998359;28;20050;-51
2023/04/17 06:43:15;;;;;;;26.77;11.52;;;;;;;;;;4998719;28;20550;-52
2023/04/17 06:45:42;;;;;;;26.60;13.07;;;;;;;;;;4999011;28;20137;-51
2023/04/17 06:48:09;;;;;;;28.35;13.95;;;;;;;;;;4999073;28;20054;-52
2023/04/17 06:50:37;;;;;;;31.90;12.43;;;;;;;;;;4998969;28;20057;-49
2023/04/17 06:53:04;;;;;;;27.85;12.95;;;;;;;;;;4998515;28;20050;-52
2023/04/17 06:55:31;;;;;;;28.05;13.25;;;;;;;;;;4998838;28;20046;-53
2023/04/17 06:57:58;;;;;;;25.38;11.88;;;;;;;;;;4998340;28;20061;-52
2023/04/17 07:00:25;;;;;;;30.42;13.73;;;;;;;;;;4998409;28;20054;-61
2023/04/17 07:02:51;;;;;;;27.67;12.93;;;;;;;;;;4994878;28;20121;-54
2023/04/17 07:05:18;;;;;;;24.55;11.43;;;;;;;;;;4996909;28;20096;-51
2023/04/17 07:07:46;;;;;;;32.92;13.52;;;;;;;;;;4996570;28;20102;-55
2023/04/17 07:10:14;;;;;;;28.40;12.73;;;;;;;;;;4995968;28;20156;-52
2023/04/17 07:12:41;;;;;;;32.00;13.93;;;;;;;;;;4995100;28;20054;-56
2023/04/17 07:15:09;;;;;;;29.15;11.73;;;;;;;;;;4996490;28;20057;-55
2023/04/17 07:17:36;;;;;;;27.35;11.55;;;;;;;;;;4996451;28;20054;-56
2023/04/17 07:20:04;;;;;;;23.52;11.63;;;;;;;;;;4996284;28;20046;-60
2023/04/17 07:22:31;;;;;;;23.60;11.25;;;;;;;;;;4996571;28;20059;-58
2023/04/17 07:25:00;;;;;;;29.58;13.73;;;;;;;;;;4996167;28;20073;-57
2023/04/17 07:27:27;;;;;;;24.60;12.07;;;;;;;;;;4996180;28;20054;-57
2023/04/17 07:29:54;;;;;;;23.48;12.02;;;;;;;;;;4996344;28;20066;-57
2023/04/17 07:32:21;;;;;;;25.10;12.45;;;;;;;;;;4996266;28;20518;-55
2023/04/17 07:34:48;;;;;;;27.48;13.07;;;;;;;;;;4996294;28;20142;-55
2023/04/17 07:37:15;;;;;;;23.55;11.30;;;;;;;;;;4996004;28;20563;-56
2023/04/17 07:39:42;;;;;;;24.08;12.48;;;;;;;;;;4996007;28;20054;-56
2023/04/17 07:42:10;;;;;;;23.33;13.02;;;;;;;;;;4995921;28;20038;-56
2023/04/17 07:44:39;;;;;;;23.33;12.38;;;;;;;;;;4994350;28;20474;-57
2023/04/17 07:47:05;;;;;;;21.52;11.52;;;;;;;;;;4993298;28;20046;-57
2023/04/17 07:49:33;;;;;;;28.02;13.02;;;;;;;;;;4993021;28;20054;-57
2023/04/17 07:52:00;;;;;;;22.08;11.38;;;;;;;;;;4993113;28;20438;-56
2023/04/17 07:54:26;;;;;;;23.52;12.90;;;;;;;;;;4992728;28;20105;-55
2023/04/17 07:57:01;;;;;;;21.27;11.45;;;;;;;;;;4992766;28;20061;-56
2023/04/17 07:59:29;;;;;;;22.38;11.63;;;;;;;;;;4992107;28;20132;-54
2023/04/17 08:01:57;;;;;;;20.08;10.43;;;;;;;;;;4992718;28;20515;-56
2023/04/17 08:04:24;;;;;;;19.15;10.50;;;;;;;;;;4992526;28;20172;-55
2023/04/17 08:06:52;;;;;;;20.23;10.10;;;;;;;;;;4992657;28;20116;-53
2023/04/17 08:09:20;;;;;;;25.45;12.02;;;;;;;;;;4992762;28;20494;-57
2023/04/17 08:11:46;;;;;;;20.15;10.70;;;;;;;;;;4992537;28;20113;-56
2023/04/17 08:14:15;;;;;;;20.92;11.23;;;;;;;;;;4992275;28;20054;-55
2023/04/17 08:16:43;;;;;;;23.95;13.35;;;;;;;;;;4992925;28;20058;-57
2023/04/17 08:19:10;;;;;;;21.05;11.93;;;;;;;;;;4991586;28;20050;-54
2023/04/17 08:21:36;;;;;;;23.85;12.98;;;;;;;;;;4992425;28;20046;-59
2023/04/17 08:24:04;;;;;;;25.38;12.75;;;;;;;;;;4992304;28;20062;-55
2023/04/17 08:26:31;;;;;;;27.05;12.73;;;;;;;;;;4992164;28;20054;-56
2023/04/17 08:29:00;;;;;;;25.70;13.40;;;;;;;;;;4992412;28;20404;-54
2023/04/17 08:31:27;;;;;;;22.73;13.02;;;;;;;;;;4992161;28;20054;-56
2023/04/17 08:33:56;;;;;;;24.35;14.18;;;;;;;;;;4992664;28;20051;-54
2023/04/17 08:36:23;;;;;;;24.50;14.00;;;;;;;;;;4992229;28;20096;-57
2023/04/17 08:38:51;;;;;;;23.75;14.05;;;;;;;;;;4991681;28;20058;-57
2023/04/17 08:41:21;;;;;;;22.45;13.02;;;;;;;;;;4992127;28;20093;-58
2023/04/17 08:43:49;;;;;;;24.63;14.02;;;;;;;;;;4992419;28;20054;-57
2023/04/17 08:46:17;;;;;;;24.58;14.60;;;;;;;;;;4991752;28;20513;-55
2023/04/17 08:48:45;;;;;;;24.10;14.32;;;;;;;;;;4991498;28;20062;-57
2023/04/17 08:51:13;;;;;;;23.15;12.98;;;;;;;;;;4991630;28;20047;-55
2023/04/17 08:53:40;;;;;;;23.48;14.15;;;;;;;;;;4991808;28;20100;-57
2023/04/17 08:56:08;;;;;;;24.27;13.57;;;;;;;;;;4991333;28;20043;-57
2023/04/17 08:58:35;;;;;;;22.95;13.48;;;;;;;;;;4991591;28;20054;-57
2023/04/17 09:01:09;;;;;;;22.60;12.57;;;;;;;;;;4991260;28;20054;-52
2023/04/17 09:03:40;;;;;;;21.33;12.52;;;;;;;;;;4991821;28;20058;-57
2023/04/17 09:06:09;;;;;;;23.20;13.43;;;;;;;;;;4991754;28;20089;-54
2023/04/17 09:08:38;;;;;;;23.85;14.65;;;;;;;;;;4991468;28;20057;-57
2023/04/17 09:11:15;;;;;;;23.80;14.73;;;;;;;;;;4991128;28;20050;-56
2023/04/17 09:13:42;;;;;;;25.80;15.35;;;;;;;;;;4991494;28;20105;-57
2023/04/17 09:16:11;;;;;;;25.38;14.82;;;;;;;;;;4990937;28;20054;-57
2023/04/17 09:18:41;;;;;;;22.58;13.75;;;;;;;;;;4991429;28;20046;-58
2023/04/17 09:21:08;;;;;;;27.17;15.32;;;;;;;;;;4990883;28;20046;-57
2023/04/17 09:23:49;;;;;;;23.70;14.73;;;;;;;;;;4991287;28;20050;-56
2023/04/17 09:26:18;;;;;;;24.55;14.15;;;;;;;;;;4991178;28;20039;-58
2023/04/17 09:29:03;;;;;;;21.85;12.35;;;;;;;;;;4991270;28;20080;-56
2023/04/17 09:31:33;;;;;;;22.42;13.45;;;;;;;;;;4991167;28;20472;-57
2023/04/17 09:34:01;;;;;;;19.88;13.38;;;;;;;;;;4990963;28;20141;-57
2023/04/17 09:36:29;;;;;;;22.48;12.90;;;;;;;;;;4991296;28;20100;-57
2023/04/17 09:38:59;;;;;;;21.70;12.60;;;;;;;;;;4991316;28;20133;-55
2023/04/17 09:41:28;;;;;;;21.57;13.00;;;;;;;;;;4990671;28;20054;-52
2023/04/17 09:43:59;;;;;;;18.20;11.82;;;;;;;;;;4991096;28;20389;-56
2023/04/17 09:46:41;;;;;;;17.92;12.25;;;;;;;;;;4991028;28;20100;-54
2023/04/17 09:49:10;;;;;;;18.25;11.95;;;;;;;;;;4991296;28;20539;-57
2023/04/17 09:51:37;;;;;;;17.38;11.30;;;;;;;;;;4990850;28;20077;-56
2023/04/17 09:54:36;;;;;;;17.77;12.05;;;;;;;;;;4990750;28;20060;-58
2023/04/17 10:00:00;;;;;;;18.27;11.63;;;;;;;;;;4990592;28;20050;-57
2023/04/17 10:02:27;;;;;;;19.35;12.05;;;;;;;;;;4990756;28;20066;-57
2023/04/17 10:04:54;;;;;;;23.45;14.68;;;;;;;;;;4990696;28;20346;-53
2023/04/17 10:07:21;;;;;;;23.50;14.43;;;;;;;;;;4990249;28;20108;-59
2023/04/17 10:09:49;;;;;;;17.83;11.80;;;;;;;;;;4990076;28;20136;-58
2023/04/17 10:12:18;;;;;;;21.38;13.57;;;;;;;;;;4990460;28;20120;-57
2023/04/17 10:14:48;;;;;;;20.85;12.85;;;;;;;;;;4990328;28;20090;-57
2023/04/17 10:17:27;;;;;;;23.98;14.13;;;;;;;;;;4989332;28;20042;-58
2023/04/17 10:19:54;;;;;;;18.63;12.50;;;;;;;;;;4990224;28;20050;-57
2023/04/17 10:22:39;;;;;;;24.05;15.52;;;;;;;;;;4990281;28;20042;-57
2023/04/17 10:25:22;;;;;;;24.52;14.88;;;;;;;;;;4990248;28;20070;-57
2023/04/17 10:27:53;;;;;;;20.38;13.10;;;;;;;;;;4990558;28;20144;-55
2023/04/17 10:30:22;;;;;;;24.73;13.75;;;;;;;;;;4989621;28;20393;-57
2023/04/17 10:33:23;;;;;;;19.70;13.50;;;;;;;;;;4990232;28;20456;-56
2023/04/17 10:35:51;;;;;;;18.58;11.85;;;;;;;;;;4990201;28;20054;-58
2023/04/17 10:38:34;;;;;;;18.63;13.07;;;;;;;;;;4990455;28;20050;-57
2023/04/17 10:41:04;;;;;;;17.40;12.50;;;;;;;;;;4989972;28;20074;-57
2023/04/17 10:43:31;;;;;;;18.55;13.27;;;;;;;;;;4990468;28;20092;-58
2023/04/17 10:46:02;;;;;;;20.35;12.43;;;;;;;;;;4990351;28;20105;-56
2023/04/17 10:48:31;;;;;;;19.70;13.23;;;;;;;;;;4990385;28;20054;-56
2023/04/17 10:50:59;;;;;;;18.73;12.88;;;;;;;;;;4989753;28;20431;-58
2023/04/17 10:53:43;;;;;;;19.13;13.20;;;;;;;;;;4982274;28;20050;-58
2023/04/17 10:56:17;;;;;;;18.52;13.23;;;;;;;;;;4985618;28;20455;-58
2023/04/17 10:58:57;;;;;;;19.27;12.95;;;;;;;;;;4989802;28;20043;-58
2023/04/17 11:01:26;;;;;;;;;;;;;;;;;;4990686;28;20388;-56
2023/04/17 11:03:52;;;;;;;16.83;12.18;;;;;;;;;;4989985;28;19921;-58
2023/04/17 11:06:19;;;;;;;20.45;12.98;;;;;;;;;;5051380;22;20041;-80
2023/04/17 11:08:47;;;;;;;19.75;13.70;;;;;;;;;;5054446;28;20055;-81
2023/04/17 11:11:17;;;;;;;17.73;12.23;;;;;;;;;;5066929;28;20068;-81
2023/04/17 11:13:47;;;;;;;18.17;12.10;;;;;;;;;;5073614;28;20055;-80
2023/04/17 11:16:14;;;;;;;19.13;13.07;;;;;;;;;;5073448;28;20299;-81
2023/04/17 11:18:41;;;;;;;18.65;12.55;;;;;;;;;;5073657;28;20106;-82
2023/04/17 11:21:11;;;;;;;21.83;13.75;;;;;;;;;;5075225;28;20503;-81
2023/04/17 11:23:38;;;;;;;20.65;14.02;;;;;;;;;;5075940;28;20554;-79
2023/04/17 11:26:05;;;;;;;18.85;13.55;;;;;;;;;;5076776;28;20094;-83
2023/04/17 11:28:34;;;;;;;19.67;14.23;;;;;;;;;;5060436;28;20179;-78
2023/04/17 11:31:01;;;;;;;21.08;13.60;;;;;;;;;;5056840;28;20072;-79
2023/04/17 11:33:28;;;;;;;19.25;12.73;;;;;;;;;;5059395;28;20064;-80
2023/04/17 11:35:55;;;;;;;18.95;13.10;;;;;;;;;;5056260;28;20056;-82
2023/04/17 11:38:22;;;;;;;17.65;12.75;;;;;;;;;;5056844;28;20053;-84
2023/04/17 11:40:51;;;;;;;18.70;13.13;;;;;;;;;;5057851;28;20073;-80
2023/04/17 11:43:19;;;;;;;19.05;13.18;;;;;;;;;;5062427;28;20101;-80
2023/04/17 11:45:51;;;;;;;19.30;12.80;;;;;;;;;;5063744;28;20094;-80
2023/04/17 11:48:22;;;;;;;21.50;13.40;;;;;;;;;;5061645;28;20393;-82
2023/04/17 11:50:49;;;;;;;20.85;14.15;;;;;;;;;;5061608;28;20052;-84
2023/04/17 11:53:21;;;;;;;19.92;13.95;;;;;;;;;;5062139;28;20045;-82
2023/04/17 11:56:27;;;;;;;20.00;13.52;;;;;;;;;;5065533;28;20076;-82
2023/04/17 11:58:55;;;;;;;19.05;14.07;;;;;;;;;;5063731;28;20079;-78
2023/04/17 12:01:25;;;;;;;23.90;15.90;;;;;;;;;;5070426;28;20098;-83
2023/04/17 12:03:53;;;;;;;25.33;16.35;;;;;;;;;;5080995;28;20057;-82
2023/04/17 12:06:20;;;;;;;22.67;15.18;;;;;;;;;;5078989;28;20079;-81
2023/04/17 12:08:49;;;;;;;21.17;14.88;;;;;;;;;;5078355;28;20075;-82
2023/04/17 12:11:17;;;;;;;20.38;15.45;;;;;;;;;;5079108;28;20044;-81
2023/04/17 12:13:44;;;;;;;22.55;15.48;;;;;;;;;;5094274;28;20132;-80
2023/04/17 12:16:11;;;;;;;18.42;13.05;;;;;;;;;;5087066;28;20056;-81
2023/04/17 12:18:39;;;;;;;19.58;13.95;;;;;;;;;;5082959;28;20087;-81
2023/04/17 12:21:06;;;;;;;18.88;13.10;;;;;;;;;;5080266;28;20414;-81
2023/04/17 12:23:33;;;;;;;18.90;13.35;;;;;;;;;;5078251;28;20074;-82
2023/04/17 12:26:00;;;;;;;21.38;12.27;;;;;;;;;;5076649;28;20072;-82
2023/04/17 12:28:26;;;;;;;18.85;12.38;;;;;;;;;;5077321;28;20491;-82
2023/04/17 12:30:53;;;;;;;18.63;11.80;;;;;;;;;;5076577;28;20075;-81
2023/04/17 12:33:20;;;;;;;17.33;12.25;;;;;;;;;;5076875;28;20037;-81
2023/04/17 12:35:48;;;;;;;18.75;12.27;;;;;;;;;;5076769;28;20139;-82
2023/04/17 12:38:15;;;;;;;17.45;11.90;;;;;;;;;;5076421;28;20048;-82
2023/04/17 12:40:42;;;;;;;18.33;12.35;;;;;;;;;;5076476;28;20041;-81
2023/04/17 12:43:09;;;;;;;18.27;12.95;;;;;;;;;;5076313;28;20048;-80
2023/04/17 12:45:36;;;;;;;16.75;11.85;;;;;;;;;;5075894;28;20049;-81
2023/04/17 12:48:03;;;;;;;17.63;12.35;;;;;;;;;;5076433;28;20328;-81
2023/04/17 12:50:29;;;;;;;17.17;11.93;;;;;;;;;;5077224;28;20211;-81
2023/04/17 12:52:58;;;;;;;16.80;11.50;;;;;;;;;;5077165;28;20049;-81
2023/04/17 12:55:25;;;;;;;16.13;10.95;;;;;;;;;;5076049;28;20076;-80
2023/04/17 12:57:52;;;;;;;21.67;13.73;;;;;;;;;;5076864;28;20060;-81
2023/04/17 13:00:19;;;;;;;18.02;12.27;;;;;;;;;;5078015;28;20040;-82
2023/04/17 13:02:46;;;;;;;17.92;12.63;;;;;;;;;;5064302;28;20072;-82
2023/04/17 13:05:13;;;;;;;16.63;11.48;;;;;;;;;;5062991;28;20120;-82
2023/04/17 13:07:39;;;;;;;17.25;11.27;;;;;;;;;;5057522;28;20051;-81
2023/04/17 13:10:11;;;;;;;14.18;9.82;;;;;;;;;;5054815;28;20049;-78
2023/04/17 13:12:40;;;;;;;14.27;10.75;;;;;;;;;;5055885;28;20128;-82
2023/04/17 13:15:08;;;;;;;14.98;10.98;;;;;;;;;;5056756;28;20056;-81
2023/04/17 13:17:35;;;;;;;15.93;11.10;;;;;;;;;;5056354;28;20059;-80
2023/04/17 13:20:02;;;;;;;14.75;10.90;;;;;;;;;;5056839;28;20553;-81
2023/04/17 13:22:29;;;;;;;17.02;11.50;;;;;;;;;;5056706;28;20080;-81
2023/04/17 13:24:56;;;;;;;13.82;9.77;;;;;;;;;;5056643;28;20048;-79
2023/04/17 13:27:24;;;;;;;15.27;10.55;;;;;;;;;;5054819;28;20041;-81
2023/04/17 13:29:51;;;;;;;13.82;9.82;;;;;;;;;;5056556;28;20053;-81
2023/04/17 13:32:17;;;;;;;15.43;10.63;;;;;;;;;;5056073;28;20051;-80
2023/04/17 13:34:44;;;;;;;14.88;10.20;;;;;;;;;;5057236;28;20144;-79
2023/04/17 13:37:11;;;;;;;14.57;9.70;;;;;;;;;;5055076;28;20415;-79
2023/04/17 13:39:38;;;;;;;14.35;9.75;;;;;;;;;;5055574;28;20041;-81
2023/04/17 13:42:04;;;;;;;12.75;9.38;;;;;;;;;;5053790;28;20526;-79
2023/04/17 13:44:32;;;;;;;10.85;8.63;;;;;;;;;;5054196;28;20073;-81
2023/04/17 13:47:02;;;;;;;11.75;8.05;;;;;;;;;;5054544;28;20041;-79
2023/04/17 13:49:28;;;;;;;14.25;9.68;;;;;;;;;;5052850;28;20506;-79
2023/04/17 13:51:55;;;;;;;13.45;9.40;;;;;;;;;;5055112;28;20143;-82
2023/04/17 13:54:22;;;;;;;13.85;8.95;;;;;;;;;;5054642;28;20072;-82
2023/04/17 13:56:49;;;;;;;11.57;8.50;;;;;;;;;;5055212;28;20080;-81
2023/04/17 13:59:17;;;;;;;10.32;7.70;;;;;;;;;;5054213;28;20173;-81
2023/04/17 14:01:45;;;;;;;12.20;8.18;;;;;;;;;;5054226;28;20108;-81
2023/04/17 14:04:12;;;;;;;19.83;12.75;;;;;;;;;;5054904;28;20154;-80
2023/04/17 14:06:38;;;;;;;12.15;8.25;;;;;;;;;;5054100;28;20419;-81
2023/04/17 14:09:06;;;;;;;13.00;8.90;;;;;;;;;;5063356;28;20068;-76
2023/04/17 14:11:32;;;;;;;10.63;8.02;;;;;;;;;;5059365;28;20049;-81
2023/04/17 14:13:59;;;;;;;12.45;9.05;;;;;;;;;;5055971;28;20063;-82
2023/04/17 14:16:26;;;;;;;12.98;8.55;;;;;;;;;;5055049;28;20072;-80
2023/04/17 14:18:54;;;;;;;11.57;8.40;;;;;;;;;;5055003;28;20156;-80
2023/04/17 14:21:21;;;;;;;15.18;10.55;;;;;;;;;;5054666;28;20049;-80
2023/04/17 14:23:49;;;;;;;16.10;10.25;;;;;;;;;;5054510;28;20045;-81
2023/04/17 14:26:16;;;;;;;13.02;9.60;;;;;;;;;;5054521;28;20049;-80
2023/04/17 14:28:42;;;;;;;12.32;9.23;;;;;;;;;;5054572;28;20132;-79
2023/04/17 14:31:09;;;;;;;11.77;8.60;;;;;;;;;;5054201;28;20048;-80
2023/04/17 14:33:36;;;;;;;10.77;7.20;;;;;;;;;;5055052;28;20398;-81
2023/04/17 14:36:04;;;;;;;9.00;6.63;;;;;;;;;;5054825;28;20104;-81